Weather observations for the past three days for
Fort Riley - Marshall AAF
Imperial (Metric)
Date Time (cdt) Wind (mph) Vis. (mi.) Weather Sky Cond. Temperature (ºF) Relative Humidity Wind Chill (°F) Heat Index (°F) Pressure Precipitation (in)
Air Dwpt 6 hour altimeter (in) sea level (mb) 1 hr 3 hr 6 hr
Max. Min.
03 23:55 S 16 10.00 Fair CLR 87.1 68.4 54% 91 29.85 1009.2
03 22:55 S 14 10.00 Fair CLR 88 66.9 50% 91 29.84 1008.9
03 21:55 S 13 10.00 Fair CLR 88.3 65.5 47% 90 29.83 1008.6
03 19:55 S 9 10.00 Fair CLR 92.5 65.3 41% 95 29.79 1007.3
03 18:55 S 10 10.00 Fair CLR 97 63.9 100.8 96.8 34% 99 29.78 1006.9
03 17:55 S 14 10.00 Fair CLR 99.9 62.8 30% 102 29.77 1006.5
03 16:55 S 14 10.00 Fair CLR 100.6 63.3 30% 103 29.77 1006.5
03 15:55 S 18 G 24 10.00 Fair CLR 100 65.7 33% 104 29.78 1006.8
03 14:55 S 16 G 22 10.00 Fair CLR 100 66.6 34% 105 29.8 1007.5
03 13:55 S 17 G 21 10.00 Fair CLR 99 67.3 36% 104 29.82 1008.2
03 12:55 S 15 10.00 Fair CLR 96.6 67.5 96.6 78.8 39% 101 29.85 1009.2
03 11:55 S 15 G 20 10.00 Fair CLR 94.8 68 42% 100 29.86 1009.6
03 10:55 S 17 10.00 Fair CLR 91.9 68.7 47% 97 29.87 1010.0
03 09:55 S 10 10.00 Fair CLR 88.2 68.7 53% 92 29.88 1010.3
03 08:55 S 10 10.00 A Few Clouds FEW110 84.6 68.2 58% 88 29.89 1010.7
03 07:55 S 7 10.00 Fair CLR 80.2 66.9 64% 83 29.88 1010.4
03 06:55 S 8 10.00 Fair CLR 80.6 66.4 85.8 79.7 62% 83 29.87 1010.0
03 05:55 S 8 10.00 Partly Cloudy SCT110 81.5 64.8 57% 83 29.87 1009.9
03 04:55 S 9 10.00 Partly Cloudy FEW110 SCT160 82.8 63.9 53% 84 29.86 1009.6
03 03:55 S 12 10.00 Partly Cloudy FEW120 SCT150 84.2 63 49% 85 29.86 1009.5
03 02:55 S 12 10.00 A Few Clouds FEW120 85.6 63.7 48% 87 29.86 1009.5
03 01:55 S 12 10.00 Fair CLR 84.9 64.2 50% 86 29.86 1009.5
03 00:55 S 14 10.00 Fair CLR 85.5 63.5 96.8 85.5 48% 87 29.86 1009.5
02 23:55 S 14 10.00 Fair CLR 85.8 63.9 48% 87 29.85 1009.2
02 22:55 SE 13 10.00 Fair CLR 86.2 64 48% 88 29.86 1009.6
02 21:55 SE 12 10.00 Fair CLR 87.3 62.6 44% 88 29.85 1009.3
02 20:55 SE 13 10.00 Fair CLR 90 61.7 39% 90 29.84 1009.0
02 19:55 S 10 10.00 Fair CLR 92.7 61.7 36% 93 29.83 1008.6
02 18:55 S 12 10.00 Fair CLR 97 61.2 102.2 97 31% 98 29.82 1008.3
02 17:55 S 12 10.00 Fair CLR 100 62.1 29% 102 29.82 1008.3
02 16:55 S 14 10.00 Fair CLR 101.8 59.4 25% 102 29.83 1008.6
02 15:55 S 14 G 18 10.00 Fair CLR 101.8 59.4 25% 102 29.85 1009.2
02 14:55 S 13 G 23 10.00 Fair CLR 101.7 59.2 25% 102 29.87 1009.9
02 13:55 SW 20 10.00 Fair CLR 101.1 61.9 28% 103 29.89 1010.6
02 12:55 SW 15 10.00 Fair CLR 99.7 63.5 100 75 31% 102 29.91 1011.2
02 11:55 SW 18 G 23 10.00 Fair CLR 98.1 66.4 36% 102 29.93 1012.0
02 10:55 SW 17 10.00 Fair CLR 93 65.8 41% 96 29.94 1012.3
02 09:55 SW 12 G 20 10.00 Fair CLR 89.4 66.4 47% 92 29.94 1012.3
02 08:55 SW 12 10.00 Fair CLR 84.6 64.9 52% 86 29.94 1012.4
02 07:55 SW 7 10.00 Fair CLR 80.4 63.7 57% 82 29.94 1012.4
02 06:55 Calm 7.00 A Few Clouds FEW120 76.6 63.5 84.2 76.6 64% 78 29.93 1012.1
02 05:55 SW 6 10.00 A Few Clouds FEW120 79.2 62.6 57% 81 29.92 1011.7
02 04:55 SW 5 10.00 Partly Cloudy SCT120 81.5 62.1 52% 82 29.92 1011.6
02 03:55 SW 8 10.00 Fair CLR 82 62.1 51% 83 29.91 1011.3
02 02:55 SW 6 10.00 Fair CLR 82.6 62.6 51% 84 29.91 1011.3
02 01:55 S 10 10.00 Fair CLR 83.7 61.9 48% 84 29.91 1011.2
02 00:55 S 9 10.00 Fair CLR 84.4 61.9 96.3 81.3 47% 85 29.91 1011.3
01 23:55 S 10 10.00 Fair CLR 84 60.3 45% 84 29.91 1011.3
01 22:55 S 10 10.00 Fair CLR 85.1 59.4 42% 85 29.91 1011.3
01 21:55 S 14 10.00 Fair CLR 88.5 58.8 37% 88 29.9 1011.0
01 20:55 S 16 10.00 Fair CLR 89.2 60.3 38% 89 29.88 1010.3
01 19:55 S 12 10.00 Fair CLR 91.9 61.2 36% 92 29.87 1010.1
01 18:55 S 10 10.00 Fair CLR 96.4 59.9 101.3 96.4 30% 96 29.87 1010.0
01 17:55 S 13 10.00 Fair CLR 99.7 58.6 26% 99 29.87 1010.0
01 16:55 S 14 10.00 Fair CLR 101.1 57.6 24% 101 29.87 1010.0
01 15:55 S 16 10.00 Fair CLR 101.1 58.6 25% 101 29.89 1010.6
01 14:55 S 10 10.00 Fair CLR 100.9 59.7 26% 101 29.91 1011.3
01 13:55 S 14 G 18 10.00 Fair CLR 100.4 59.2 26% 101 29.92 1011.6
01 12:55 SW 14 10.00 Fair CLR 98.8 61.9 99 73.9 30% 100 29.95 1012.6
01 11:55 SW 13 10.00 Fair CLR 96.3 62.4 33% 97 29.96 1013.0
01 10:55 SW 14 10.00 Fair CLR 92.1 62.1 37% 93 29.96 1013.1
01 09:55 SW 10 10.00 Fair CLR 88.2 63.5 44% 89 29.97 1013.4
01 08:55 W 8 10.00 Fair CLR 84.4 62.4 48% 85 29.98 1013.8
01 07:55 Calm 10.00 Fair CLR 77 62.4 61% 79 29.97 1013.5
01 06:55 Calm 10.00 Fair CLR 75.2 60.8 83.8 75 61% 77 29.96 1013.1
01 05:55 Calm 10.00 Fair CLR 77.2 60.8 57% 79 29.96 1013.0
01 04:55 SW 7 10.00 Fair CLR 77.2 60.3 56% 79 29.96 1013.0
01 03:55 SW 7 10.00 Fair CLR 80.8 60.4 50% 82 29.94 1012.3
01 02:55 SW 8 10.00 Fair CLR 82 60.4 48% 83 29.93 1012.0
01 01:55 S 10 10.00 Fair CLR 82.2 60.4 48% 83 29.93 1012.0
01 00:55 S 10 10.00 Fair CLR 83.3 61 97.2 83.3 47% 84 29.94 1012.3
Date Time (cdt) Wind (mph) Vis. (mi.) Weather Sky Cond. Air Dwpt Max. Min. Relative Humidity Wind Chill (°F) Heat Index (°F) altimeter (in) sea level (mb) 1 hr 3 hr 6 hr
6 hour
Temperature (ºF) Pressure Precipitation (in)